createdAt,value
2023-05-22T00:01:56.609Z,1.92
2023-05-22T00:05:01.497Z,2.13
2023-05-22T00:08:12.333Z,1.77
2023-05-22T00:11:16.847Z,2.38
2023-05-22T00:14:21.077Z,1.92
2023-05-22T00:17:26.475Z,1.85
2023-05-22T00:20:30.888Z,2.03
2023-05-22T00:23:35.433Z,2.42
2023-05-22T00:26:39.985Z,1.73
2023-05-22T00:29:44.118Z,1.50
2023-05-22T00:32:48.341Z,1.58
2023-05-22T00:35:53.732Z,1.45
2023-05-22T00:38:58.179Z,2.72
2023-05-22T00:42:03.253Z,1.77
2023-05-22T00:45:09.752Z,1.92
2023-05-22T00:48:15.606Z,1.77
2023-05-22T00:51:24.164Z,1.88
2023-05-22T00:54:30.592Z,1.70
2023-05-22T00:57:36.430Z,1.52
2023-05-22T01:00:42.173Z,1.70
2023-05-22T01:03:47.698Z,1.50
2023-05-22T01:06:54.068Z,1.20
2023-05-22T01:09:58.604Z,1.83
2023-05-22T01:13:08.909Z,1.60
2023-05-22T01:16:23.877Z,1.50
2023-05-22T01:20:02.063Z,1.77
2023-05-22T01:23:41.354Z,1.67
2023-05-22T01:27:28.653Z,1.67
2023-05-22T01:30:55.543Z,2.15
2023-05-22T01:34:02.494Z,1.15
2023-05-22T01:37:08.172Z,1.63
2023-05-22T01:40:13.734Z,1.33
2023-05-22T01:43:19.194Z,1.50
2023-05-22T01:46:28.221Z,1.63
2023-05-22T01:49:34.590Z,2.72
2023-05-22T01:52:41.806Z,1.65
2023-05-22T01:55:55.866Z,1.10
2023-05-22T01:59:07.870Z,1.65
2023-05-22T02:02:15.976Z,1.58
2023-05-22T02:05:23.256Z,1.45
2023-05-22T02:08:28.973Z,2.05
2023-05-22T02:11:36.141Z,1.63
2023-05-22T02:14:43.121Z,1.85
2023-05-22T02:17:49.690Z,1.45
2023-05-22T02:20:54.422Z,1.42
2023-05-22T02:23:58.737Z,1.63
2023-05-22T02:27:04.176Z,1.30
2023-05-22T02:30:09.458Z,1.73
2023-05-22T02:33:17.858Z,1.50
2023-05-22T02:36:22.947Z,2.30
2023-05-22T02:39:27.548Z,1.10
2023-05-22T02:45:37.761Z,1.45
2023-05-22T02:48:42.181Z,1.75
2023-05-22T02:51:47.779Z,1.88
2023-05-22T02:54:52.401Z,1.50
2023-05-22T02:57:57.674Z,1.25
2023-05-22T03:01:03.554Z,1.27
2023-05-22T03:04:08.079Z,1.60
2023-05-22T03:07:12.327Z,1.63
2023-05-22T03:10:17.425Z,1.98
2023-05-22T03:13:21.661Z,1.15
2023-05-22T03:16:26.761Z,1.17
2023-05-22T03:19:31.415Z,1.50
2023-05-22T03:25:40.722Z,1.00
2023-05-22T03:28:45.468Z,1.25
2023-05-22T03:31:50.274Z,1.45
2023-05-22T03:34:54.346Z,1.42
2023-05-22T03:37:58.842Z,1.00
2023-05-22T03:41:03.212Z,1.17
2023-05-22T03:44:07.728Z,1.02
2023-05-22T03:47:12.103Z,1.70
2023-05-22T03:50:16.524Z,0.93
2023-05-22T03:53:21.209Z,1.63
2023-05-22T03:56:26.560Z,1.42
2023-05-22T03:59:31.098Z,1.55
2023-05-22T04:02:38.898Z,1.92
2023-05-22T04:05:43.603Z,0.90
2023-05-22T04:08:49.249Z,1.38
2023-05-22T04:11:53.534Z,1.50
2023-05-22T04:14:57.715Z,1.25
2023-05-22T04:18:02.162Z,1.10
2023-05-22T04:21:09.534Z,2.13
2023-05-22T04:24:14.260Z,0.68
2023-05-22T04:27:22.030Z,1.40
2023-05-22T04:30:26.904Z,1.80
2023-05-22T04:33:34.270Z,1.50
2023-05-22T04:36:38.896Z,1.23
2023-05-22T04:39:43.356Z,2.00
2023-05-22T04:42:47.508Z,1.73
2023-05-22T04:45:52.176Z,0.90
2023-05-22T04:49:02.078Z,1.33
2023-05-22T04:52:07.297Z,1.20
2023-05-22T04:55:12.157Z,1.77
2023-05-22T04:58:16.974Z,1.33
2023-05-22T05:01:21.615Z,2.08
2023-05-22T05:04:26.291Z,1.10
2023-05-22T05:10:35.521Z,1.15
2023-05-22T05:13:40.002Z,1.17
2023-05-22T05:16:45.021Z,1.20
2023-05-22T05:19:50.462Z,2.10
2023-05-22T05:22:54.875Z,0.95
2023-05-22T05:25:59.420Z,1.00
2023-05-22T05:29:03.902Z,0.90
2023-05-22T05:32:25.475Z,1.13
2023-05-22T05:35:45.175Z,1.08
2023-05-22T05:38:51.111Z,1.20
2023-05-22T05:41:55.444Z,1.23
2023-05-22T05:44:59.574Z,1.17
2023-05-22T05:48:06.551Z,0.90
2023-05-22T05:51:13.056Z,1.10
2023-05-22T05:54:20.176Z,1.65
2023-05-22T05:57:26.520Z,1.95
2023-05-22T06:00:32.735Z,1.10
2023-05-22T06:03:38.451Z,1.23
2023-05-22T06:06:48.364Z,1.00
2023-05-22T06:09:52.748Z,1.33
2023-05-22T06:13:17.115Z,1.38
2023-05-22T06:16:21.637Z,1.45
2023-05-22T06:19:26.101Z,1.80
2023-05-22T06:22:30.797Z,1.60
2023-05-22T06:25:37.355Z,1.30
2023-05-22T06:28:41.876Z,0.95
2023-05-22T06:34:54.104Z,1.30
2023-05-22T06:37:59.261Z,0.75
2023-05-22T06:41:05.381Z,1.70
2023-05-22T06:44:10.290Z,0.82
2023-05-22T06:47:16.576Z,0.80
2023-05-22T06:53:25.690Z,1.05
2023-05-22T06:56:30.342Z,1.33
2023-05-22T06:59:38.839Z,0.98
2023-05-22T07:06:02.254Z,2.08
2023-05-22T07:09:08.648Z,1.00
2023-05-22T07:12:13.580Z,1.00
2023-05-22T07:15:18.087Z,1.42
2023-05-22T07:18:28.018Z,1.30
2023-05-22T07:21:35.100Z,1.20
2023-05-22T07:24:41.697Z,1.10
2023-05-22T07:27:46.107Z,1.52
2023-05-22T07:30:51.254Z,0.90
2023-05-22T07:33:56.022Z,1.00
2023-05-22T07:37:07.046Z,0.80
2023-05-22T07:40:12.110Z,1.20
2023-05-22T07:43:16.754Z,1.60
2023-05-22T07:46:21.301Z,1.15
2023-05-22T07:49:33.497Z,0.90
2023-05-22T07:52:39.479Z,1.05
2023-05-22T07:55:44.535Z,1.80
2023-05-22T07:58:49.138Z,1.23
2023-05-22T08:01:58.420Z,1.52
2023-05-22T08:05:04.546Z,1.40
2023-05-22T08:08:10.438Z,1.48
2023-05-22T08:11:14.731Z,1.63
2023-05-22T08:14:19.073Z,1.20
2023-05-22T08:17:23.331Z,0.70
2023-05-22T08:20:27.824Z,1.10
2023-05-22T08:23:32.690Z,1.23
2023-05-22T08:26:37.492Z,1.35
2023-05-22T08:29:42.212Z,1.10
2023-05-22T08:32:46.587Z,1.00
2023-05-22T08:35:51.214Z,1.08
2023-05-22T08:38:55.993Z,1.50
2023-05-22T08:42:02.444Z,1.00
2023-05-22T08:45:07.962Z,1.77
2023-05-22T08:48:13.803Z,1.40
2023-05-22T08:51:19.866Z,1.10
2023-05-22T08:54:28.064Z,0.93
2023-05-22T08:57:33.305Z,0.93
2023-05-22T09:00:38.036Z,1.10
2023-05-22T09:03:42.712Z,1.00
2023-05-22T09:06:47.540Z,1.52
2023-05-22T09:09:52.471Z,0.65
2023-05-22T09:13:01.284Z,1.15
2023-05-22T09:16:11.509Z,1.40
2023-05-22T09:19:16.354Z,1.38
2023-05-22T09:22:23.003Z,1.02
2023-05-22T09:25:28.764Z,1.10
2023-05-22T09:28:35.305Z,1.15
2023-05-22T09:31:44.723Z,1.10
2023-05-22T09:34:51.414Z,1.65
2023-05-22T09:37:57.381Z,1.13
2023-05-22T09:41:02.033Z,1.02
2023-05-22T09:44:14.175Z,0.75
2023-05-22T09:47:19.098Z,1.02
2023-05-22T09:50:23.207Z,0.88
2023-05-22T09:53:31.421Z,1.00
2023-05-22T09:56:41.979Z,1.63
2023-05-22T09:59:54.339Z,1.52
2023-05-22T10:03:07.648Z,0.82
2023-05-22T10:06:14.130Z,1.08
2023-05-22T10:09:21.411Z,1.63
2023-05-22T10:12:26.788Z,1.30
2023-05-22T10:15:32.233Z,1.15
2023-05-22T10:18:38.341Z,0.85
2023-05-22T10:21:43.473Z,1.02
2023-05-22T10:24:48.631Z,0.98
2023-05-22T10:27:54.723Z,0.88
2023-05-22T10:31:05.358Z,0.95
2023-05-22T10:34:49.121Z,1.27
2023-05-22T10:38:00.015Z,0.88
2023-05-22T10:41:04.848Z,0.90
2023-05-22T10:44:09.504Z,0.95
2023-05-22T10:47:14.595Z,0.80
2023-05-22T10:50:19.267Z,1.30
2023-05-22T10:53:28.155Z,0.90
2023-05-22T10:56:37.447Z,0.63
2023-05-22T10:59:42.801Z,1.15
2023-05-22T11:02:47.522Z,1.35
2023-05-22T11:05:57.467Z,1.20
2023-05-22T11:09:32.349Z,0.98
2023-05-22T11:12:37.370Z,0.82
2023-05-22T11:15:46.743Z,0.88
2023-05-22T11:19:22.697Z,1.20
2023-05-22T11:22:32.428Z,1.20
2023-05-22T11:25:38.565Z,1.33
2023-05-22T11:28:44.119Z,1.08
2023-05-22T11:31:48.753Z,1.42
2023-05-22T11:34:54.701Z,0.77
2023-05-22T11:37:59.536Z,0.80
2023-05-22T11:41:04.228Z,1.02
2023-05-22T11:44:08.978Z,1.02
2023-05-22T11:47:14.166Z,1.20
2023-05-22T11:53:26.667Z,1.00
2023-05-22T11:56:31.986Z,0.90
2023-05-22T11:59:36.671Z,1.00
2023-05-22T12:02:47.683Z,1.20
2023-05-22T12:05:52.648Z,1.17
2023-05-22T12:08:57.077Z,2.55
2023-05-22T12:12:01.361Z,0.80
2023-05-22T12:15:07.267Z,1.13
2023-05-22T12:18:11.931Z,0.70
2023-05-22T12:21:19.299Z,1.20
2023-05-22T12:24:24.180Z,1.40
2023-05-22T12:27:33.198Z,1.38
2023-05-22T12:30:42.260Z,0.80
2023-05-22T12:33:46.954Z,1.33
2023-05-22T12:36:51.501Z,0.77
2023-05-22T12:40:00.939Z,1.20
2023-05-22T12:43:05.379Z,0.85
2023-05-22T12:46:09.521Z,1.67
2023-05-22T12:49:13.936Z,0.90
2023-05-22T12:52:18.692Z,1.23
2023-05-22T12:55:23.484Z,0.90
2023-05-22T12:58:27.844Z,1.30
2023-05-22T13:01:32.338Z,1.05
2023-05-22T13:04:36.682Z,1.10
2023-05-22T13:07:41.288Z,1.40
2023-05-22T13:10:45.445Z,1.02
2023-05-22T13:13:49.816Z,1.23
2023-05-22T13:16:54.248Z,1.52
2023-05-22T13:19:58.856Z,1.25
2023-05-22T13:23:03.386Z,1.13
2023-05-22T13:26:08.163Z,1.00
2023-05-22T13:29:12.708Z,1.42
2023-05-22T13:32:20.078Z,1.40
2023-05-22T13:35:24.689Z,1.48
2023-05-22T13:38:28.809Z,1.10
2023-05-22T13:41:33.061Z,1.35
2023-05-22T13:44:37.682Z,1.55
2023-05-22T13:47:42.161Z,1.30
2023-05-22T13:50:46.614Z,0.90
2023-05-22T13:53:51.046Z,1.00
2023-05-22T13:56:57.612Z,1.23
2023-05-22T14:00:02.583Z,1.05
2023-05-22T14:03:08.912Z,1.08
2023-05-22T14:06:13.332Z,1.08
2023-05-22T14:09:18.362Z,1.25
2023-05-22T14:12:22.920Z,1.08
2023-05-22T14:15:27.330Z,1.13
2023-05-22T14:18:32.049Z,1.10
2023-05-22T14:21:36.942Z,1.35
2023-05-22T14:24:41.496Z,1.17
2023-05-22T14:27:45.893Z,0.73
2023-05-22T14:30:50.302Z,1.55
2023-05-22T14:33:55.483Z,1.38
2023-05-22T14:37:00.052Z,1.08
2023-05-22T14:40:05.158Z,1.45
2023-05-22T14:43:09.561Z,1.10
2023-05-22T14:46:14.072Z,0.98
2023-05-22T14:49:18.864Z,1.00
2023-05-22T14:52:23.526Z,1.02
2023-05-22T14:55:28.166Z,0.98
2023-05-22T14:58:32.699Z,1.73
2023-05-22T15:01:38.651Z,1.10
2023-05-22T15:04:44.695Z,0.95
2023-05-22T15:07:51.216Z,1.08
2023-05-22T15:10:55.987Z,1.00
2023-05-22T15:14:00.830Z,1.17
2023-05-22T15:17:05.665Z,0.93
2023-05-22T15:20:10.802Z,1.05
2023-05-22T15:23:16.364Z,0.88
2023-05-22T15:26:21.500Z,1.45
2023-05-22T15:29:26.122Z,1.10
2023-05-22T15:32:32.757Z,0.85
2023-05-22T15:35:37.199Z,0.90
2023-05-22T15:38:42.517Z,0.90
2023-05-22T15:41:54.597Z,1.25
2023-05-22T15:45:07.996Z,1.10
2023-05-22T15:48:12.834Z,1.58
2023-05-22T15:51:17.549Z,1.00
2023-05-22T15:54:21.662Z,1.00
2023-05-22T15:57:28.310Z,1.27
2023-05-22T16:00:38.449Z,1.33
2023-05-22T16:03:42.843Z,0.85
2023-05-22T16:06:47.106Z,1.02
2023-05-22T16:09:51.482Z,1.20
2023-05-22T16:12:56.268Z,0.82
2023-05-22T16:16:03.248Z,1.08
2023-05-22T16:19:07.891Z,1.30
2023-05-22T16:22:12.284Z,1.20
2023-05-22T16:25:17.498Z,1.83
2023-05-22T16:28:22.104Z,1.58
2023-05-22T16:31:26.704Z,1.70
2023-05-22T16:34:33.744Z,1.38
2023-05-22T16:37:38.409Z,1.15
2023-05-22T16:40:42.962Z,1.20
2023-05-22T16:43:47.681Z,1.42
2023-05-22T16:46:52.171Z,1.30
2023-05-22T16:49:56.801Z,1.38
2023-05-22T16:53:01.106Z,1.98
2023-05-22T16:56:05.663Z,1.40
2023-05-22T16:59:10.379Z,1.00
2023-05-22T17:02:14.714Z,1.02
2023-05-22T17:05:19.986Z,1.00
2023-05-22T17:08:28.097Z,1.15
2023-05-22T17:11:32.375Z,0.93
2023-05-22T17:20:50.156Z,1.10
2023-05-22T17:23:54.732Z,1.23
2023-05-22T17:26:59.988Z,1.27
2023-05-22T17:30:06.831Z,1.17
2023-05-22T17:33:12.259Z,1.13
2023-05-22T17:36:16.448Z,0.90
2023-05-22T17:39:20.623Z,1.00
2023-05-22T17:42:25.116Z,1.60
2023-05-22T17:45:30.425Z,1.40
2023-05-22T17:48:35.453Z,0.93
2023-05-22T17:51:39.873Z,0.88
2023-05-22T17:54:44.209Z,1.10
2023-05-22T17:57:48.510Z,1.00
2023-05-22T18:00:52.995Z,1.50
2023-05-22T18:03:58.488Z,0.90
2023-05-22T18:07:03.798Z,1.10
2023-05-22T18:10:08.873Z,0.85
2023-05-22T18:13:13.517Z,1.33
2023-05-22T18:19:23.843Z,1.23
2023-05-22T18:22:28.189Z,1.33
2023-05-22T18:25:32.696Z,1.27
2023-05-22T18:31:41.676Z,1.45
2023-05-22T18:37:51.418Z,1.10
2023-05-22T18:40:56.353Z,1.08
2023-05-22T18:44:01.373Z,0.93
2023-05-22T18:47:06.511Z,1.00
2023-05-22T18:50:12.102Z,1.20
2023-05-22T18:53:16.603Z,1.40
2023-05-22T18:59:26.012Z,1.40
2023-05-22T19:02:30.737Z,1.25
2023-05-22T19:05:35.179Z,2.17
2023-05-22T19:11:44.852Z,1.80
2023-05-22T19:14:49.616Z,1.35
2023-05-22T19:17:54.077Z,1.05
2023-05-22T19:20:58.909Z,1.50
2023-05-22T19:24:03.475Z,0.77
2023-05-22T19:30:15.040Z,1.33
2023-05-22T19:33:21.251Z,1.55
2023-05-22T19:36:25.941Z,1.83
2023-05-22T19:39:30.917Z,1.40
2023-05-22T19:42:38.672Z,2.10
2023-05-22T19:45:43.558Z,1.17
2023-05-22T19:48:48.212Z,1.58
2023-05-22T19:51:54.121Z,1.45
2023-05-22T19:54:59.877Z,1.33
2023-05-22T19:58:04.112Z,1.88
2023-05-22T20:04:14.051Z,1.55
2023-05-22T20:07:18.437Z,1.20
2023-05-22T20:10:23.803Z,1.70
2023-05-22T20:13:28.694Z,1.52
2023-05-22T20:16:33.416Z,1.33
2023-05-22T20:22:42.677Z,1.60
2023-05-22T20:25:47.150Z,1.77
2023-05-22T20:28:51.344Z,1.63
2023-05-22T20:31:55.908Z,2.03
2023-05-22T20:35:00.556Z,1.42
2023-05-22T20:41:14.083Z,1.80
2023-05-22T20:44:19.184Z,1.40
2023-05-22T20:47:23.765Z,1.55
2023-05-22T20:50:27.924Z,2.28
2023-05-22T20:53:32.386Z,1.00
2023-05-22T20:59:41.930Z,1.70
2023-05-22T21:02:46.486Z,1.88
2023-05-22T21:05:50.629Z,2.10
2023-05-22T21:09:01.442Z,2.33
2023-05-22T21:12:07.387Z,1.60
2023-05-22T21:15:12.199Z,1.90
2023-05-22T21:18:16.873Z,1.95
2023-05-22T21:21:21.641Z,2.40
2023-05-22T21:24:26.241Z,2.00
2023-05-22T21:27:30.814Z,2.33
2023-05-22T21:30:35.004Z,2.58
2023-05-22T21:33:39.284Z,2.38
2023-05-22T21:36:43.949Z,2.00
2023-05-22T21:39:48.421Z,1.55
2023-05-22T21:42:53.404Z,1.83
2023-05-22T21:45:57.844Z,2.85
2023-05-22T21:49:03.305Z,1.73
2023-05-22T21:52:07.862Z,1.90
2023-05-22T21:55:12.537Z,1.80
2023-05-22T21:58:17.050Z,2.20
2023-05-22T22:01:21.536Z,2.78
2023-05-22T22:04:25.851Z,2.80
2023-05-22T22:07:30.164Z,2.08
2023-05-22T22:10:35.290Z,1.77
2023-05-22T22:13:39.629Z,2.63
2023-05-22T22:16:44.891Z,2.05
2023-05-22T22:19:49.741Z,2.35
2023-05-22T22:22:54.311Z,3.42
2023-05-22T22:25:58.865Z,2.83
2023-05-22T22:29:03.380Z,2.88
2023-05-22T22:32:07.945Z,2.25
2023-05-22T22:35:12.260Z,2.45
2023-05-22T22:38:16.496Z,2.65
2023-05-22T22:41:20.751Z,2.17
2023-05-22T22:44:25.357Z,3.13
2023-05-22T22:47:29.646Z,2.72
2023-05-22T22:50:33.978Z,3.10
2023-05-22T22:53:38.358Z,2.35
2023-05-22T22:56:42.589Z,2.00
2023-05-22T22:59:47.121Z,2.67
2023-05-22T23:02:51.727Z,2.60
2023-05-22T23:05:56.254Z,2.78
2023-05-22T23:09:02.752Z,2.33
2023-05-22T23:12:07.578Z,2.28
2023-05-22T23:18:18.741Z,2.00
2023-05-22T23:21:23.277Z,3.22
2023-05-22T23:24:27.568Z,3.22
2023-05-22T23:27:31.771Z,1.67
2023-05-22T23:30:36.177Z,2.28
2023-05-22T23:33:40.989Z,2.72
2023-05-22T23:36:45.714Z,2.70
2023-05-22T23:39:50.089Z,2.28
2023-05-22T23:42:54.515Z,2.55
2023-05-22T23:45:58.607Z,2.63
2023-05-22T23:49:02.979Z,2.20
2023-05-22T23:52:07.985Z,3.72
2023-05-22T23:55:12.910Z,3.47
2023-05-22T23:58:17.378Z,2.70
